Time;durP1;ratioP1;P1;durP2;ratioP2;P2;SDS_P1;SDS_P2;PMS_P1;PMS_P2;Temp;Humidity;BMP_temperature;BMP_pressure;BME280_temperature;BME280_humidity;BME280_pressure;Samples;Min_cycle;Max_cycle;Signal;HPM_P1;HPM_P2
2023/07/23 00:02:17;;;;;;;5.88;4.60;;;;;;;17.88;100.00;100796.94;5183653;28;20026;-77
2023/07/23 00:04:48;;;;;;;7.15;5.22;;;;;;;17.89;100.00;100801.25;5201591;28;20460;-77
2023/07/23 00:07:20;;;;;;;7.43;5.13;;;;;;;17.89;100.00;100801.25;5202691;28;20072;-77
2023/07/23 00:09:51;;;;;;;8.48;5.00;;;;;;;17.87;100.00;100784.69;5200585;28;20041;-77
2023/07/23 00:12:22;;;;;;;7.85;5.00;;;;;;;17.92;100.00;100791.13;5197513;28;20026;-78
2023/07/23 00:14:53;;;;;;;8.30;5.05;;;;;;;17.88;100.00;100781.03;5189142;28;20033;-77
2023/07/23 00:17:25;;;;;;;6.20;4.95;;;;;;;17.91;100.00;100785.97;5194038;28;20080;-77
2023/07/23 00:19:56;;;;;;;7.35;5.45;;;;;;;17.83;100.00;100770.16;5196340;28;20113;-77
2023/07/23 00:22:28;;;;;;;6.78;4.78;;;;;;;17.87;100.00;100776.75;5200809;28;20030;-78
2023/07/23 00:24:59;;;;;;;5.95;4.80;;;;;;;17.89;100.00;100766.81;5204706;28;20030;-77
2023/07/23 00:27:31;;;;;;;7.90;5.07;;;;;;;17.85;100.00;100765.50;5199388;28;20031;-77
2023/07/23 00:30:03;;;;;;;7.55;5.05;;;;;;;17.90;100.00;100760.50;5195366;28;20046;-77
2023/07/23 00:32:35;;;;;;;6.95;5.53;;;;;;;17.90;100.00;100760.50;5203285;28;20482;-77
2023/07/23 00:35:06;;;;;;;6.77;5.33;;;;;;;17.89;100.00;100758.84;5199507;28;20029;-77
2023/07/23 00:37:37;;;;;;;7.15;5.07;;;;;;;17.86;100.00;100748.59;5207682;28;20368;-77
2023/07/23 00:40:10;;;;;;;8.70;5.65;;;;;;;17.84;100.00;100742.63;5202204;28;20080;-77
2023/07/23 00:42:41;;;;;;;7.93;4.57;;;;;;;17.87;100.00;100743.09;5183113;28;20117;-77
2023/07/23 00:45:12;;;;;;;8.32;4.82;;;;;;;17.86;100.00;100746.78;5205314;28;20117;-76
2023/07/23 00:47:44;;;;;;;6.07;4.65;;;;;;;17.82;100.00;100739.38;5209371;28;20025;-76
2023/07/23 00:50:16;;;;;;;7.03;4.50;;;;;;;17.75;100.00;100726.81;5201639;28;20104;-76
2023/07/23 00:52:48;;;;;;;9.18;5.22;;;;;;;17.75;100.00;100726.00;5193274;28;20196;-76
2023/07/23 00:55:19;;;;;;;7.47;4.90;;;;;;;17.73;100.00;100723.50;5197951;28;20023;-76
2023/07/23 00:57:50;;;;;;;5.80;4.45;;;;;;;17.74;100.00;100716.38;5210084;28;20023;-76
2023/07/23 01:00:22;;;;;;;7.00;4.47;;;;;;;17.75;100.00;100707.47;5204349;28;20033;-76
2023/07/23 01:02:53;;;;;;;7.18;4.57;;;;;;;17.73;100.00;100710.28;5198684;28;20030;-76
2023/07/23 01:05:25;;;;;;;5.13;4.22;;;;;;;17.71;100.00;100699.00;5199358;28;20057;-75
2023/07/23 01:07:57;;;;;;;6.65;4.10;;;;;;;17.70;100.00;100705.31;5205111;28;20116;-75
2023/07/23 01:10:31;;;;;;;7.82;4.15;;;;;;;17.71;100.00;100693.72;5198362;28;20348;-75
2023/07/23 01:13:03;;;;;;;7.68;3.92;;;;;;;17.66;100.00;100688.13;5202858;28;20084;-75
2023/07/23 01:15:35;;;;;;;6.90;3.90;;;;;;;17.66;100.00;100688.13;5199711;28;20033;-75
2023/07/23 01:18:06;;;;;;;8.45;4.25;;;;;;;17.71;100.00;100683.13;5203032;28;20476;-75
2023/07/23 01:20:37;;;;;;;6.85;4.47;;;;;;;17.69;100.00;100677.19;5201614;28;20025;-75
2023/07/23 01:23:08;;;;;;;4.93;4.20;;;;;;;17.65;100.00;100665.31;5196178;28;20069;-75
2023/07/23 01:25:40;;;;;;;6.95;4.38;;;;;;;17.65;100.00;100664.47;5201598;28;20096;-75
2023/07/23 01:28:11;;;;;;;5.80;4.60;;;;;;;17.63;100.00;100662.00;5203835;28;20018;-75
2023/07/23 01:30:42;;;;;;;6.60;4.30;;;;;;;17.69;100.00;100658.66;5203545;28;20102;-75
2023/07/23 01:33:15;;;;;;;6.15;4.57;;;;;;;17.68;100.00;100659.63;5196008;28;20036;-75
2023/07/23 01:35:46;;;;;;;6.22;4.70;;;;;;;17.65;100.00;100656.50;5208797;28;20522;-75
2023/07/23 01:38:18;;;;;;;6.85;4.78;;;;;;;17.66;100.00;100652.88;5195666;28;20333;-75
2023/07/23 01:40:50;;;;;;;7.88;5.38;;;;;;;17.65;100.00;100645.91;5198503;28;20476;-75
2023/07/23 01:43:22;;;;;;;6.13;4.67;;;;;;;17.62;100.00;100641.81;5202262;28;20039;-76
2023/07/23 01:45:53;;;;;;;6.90;5.18;;;;;;;17.63;100.00;100635.50;5202279;28;20034;-75
2023/07/23 01:48:25;;;;;;;7.05;4.88;;;;;;;17.63;100.00;100638.16;5199733;28;20032;-75
2023/07/23 01:50:56;;;;;;;7.28;5.30;;;;;;;17.62;100.00;100633.88;5202962;28;20042;-75
2023/07/23 01:53:28;;;;;;;7.88;5.05;;;;;;;17.61;100.00;100628.75;5198567;28;20085;-75
2023/07/23 01:56:00;;;;;;;6.45;4.95;;;;;;;17.61;100.00;100632.22;5199748;28;20498;-75
2023/07/23 01:58:31;;;;;;;7.07;5.55;;;;;;;17.63;100.00;100618.78;5206440;28;20027;-75
2023/07/23 02:01:04;;;;;;;6.22;4.78;;;;;;;17.63;100.00;100613.50;5200871;28;20031;-75
2023/07/23 02:03:35;;;;;;;7.40;4.80;;;;;;;17.67;100.00;100617.44;5201417;28;20133;-75
2023/07/23 02:06:06;;;;;;;11.23;5.00;;;;;;;17.58;100.00;100606.09;5199271;28;20052;-75
2023/07/23 02:08:38;;;;;;;7.07;4.50;;;;;;;17.66;100.00;100605.19;5195757;28;20030;-75
2023/07/23 02:11:09;;;;;;;8.68;4.35;;;;;;;17.68;100.00;100601.34;5199246;28;20022;-75
2023/07/23 02:13:40;;;;;;;5.97;4.70;;;;;;;17.71;100.00;100600.16;5200149;28;20029;-76
2023/07/23 02:16:16;;;;;;;5.68;4.13;;;;;;;17.78;100.00;100597.63;5182045;28;20026;-76
2023/07/23 02:18:48;;;;;;;7.13;4.60;;;;;;;17.67;100.00;100597.06;5201573;28;21572;-76
2023/07/23 02:21:19;;;;;;;5.45;4.00;;;;;;;17.71;100.00;100592.22;5204937;28;20029;-75
2023/07/23 02:23:51;;;;;;;7.05;4.50;;;;;;;17.77;100.00;100580.94;5193779;28;20451;-75
2023/07/23 02:26:22;;;;;;;6.13;4.28;;;;;;;17.78;100.00;100582.56;5197272;28;20415;-76
2023/07/23 02:28:54;;;;;;;6.88;4.22;;;;;;;17.80;100.00;100577.06;5199853;28;20050;-75
2023/07/23 02:31:25;;;;;;;5.30;4.05;;;;;;;17.81;100.00;100576.91;5202211;28;20033;-75
2023/07/23 02:33:56;;;;;;;7.50;4.22;;;;;;;17.83;100.00;100577.53;5200502;28;20121;-75
2023/07/23 02:36:28;;;;;;;7.35;4.13;;;;;;;17.81;100.00;100568.13;5202880;28;20106;-75
2023/07/23 02:38:59;;;;;;;5.33;3.57;;;;;;;17.86;100.00;100573.69;5195810;28;20515;-75
2023/07/23 02:41:30;;;;;;;6.00;4.00;;;;;;;17.84;100.00;100573.03;5198956;28;20783;-76
2023/07/23 02:44:01;;;;;;;5.88;3.97;;;;;;;17.84;100.00;100565.09;5196380;28;20037;-76
2023/07/23 02:46:33;;;;;;;6.38;3.80;;;;;;;17.85;100.00;100569.41;5202597;28;20038;-76
2023/07/23 02:49:04;;;;;;;6.03;3.85;;;;;;;17.82;100.00;100556.53;5193855;28;20550;-76
2023/07/23 02:51:36;;;;;;;7.82;3.70;;;;;;;17.87;100.00;100565.53;5196382;28;20447;-76
2023/07/23 02:54:08;;;;;;;9.10;4.53;;;;;;;17.90;100.00;100559.06;5199980;28;20029;-75
2023/07/23 02:56:40;;;;;;;6.00;3.40;;;;;;;17.88;100.00;100561.06;5199008;28;20030;-76
2023/07/23 02:59:11;;;;;;;6.35;3.78;;;;;;;17.91;100.00;100563.34;5201307;28;20033;-75
2023/07/23 03:01:42;;;;;;;5.32;3.70;;;;;;;17.89;100.00;100554.78;5196721;28;20056;-76
2023/07/23 03:04:13;;;;;;;4.72;3.83;;;;;;;17.91;100.00;100558.88;5200003;28;20479;-75
2023/07/23 03:06:45;;;;;;;6.43;3.75;;;;;;;17.93;100.00;100558.69;5197810;28;20518;-75
2023/07/23 03:09:16;;;;;;;5.22;3.75;;;;;;;17.91;100.00;100556.22;5185079;28;20080;-76
2023/07/23 03:11:47;;;;;;;6.68;3.65;;;;;;;17.91;100.00;100550.09;5201453;28;20468;-76
2023/07/23 03:14:19;;;;;;;7.07;3.80;;;;;;;17.89;100.00;100552.13;5201553;28;20539;-76
2023/07/23 03:16:50;;;;;;;7.32;3.90;;;;;;;17.94;100.00;100547.06;5196963;28;20018;-75
2023/07/23 03:19:21;;;;;;;6.55;3.65;;;;;;;17.84;100.00;100542.09;5195454;28;20025;-76
2023/07/23 03:21:52;;;;;;;5.43;3.88;;;;;;;17.90;100.00;100540.50;5198960;28;20058;-76
2023/07/23 03:24:24;;;;;;;5.57;3.83;;;;;;;17.92;100.00;100544.63;5181538;28;20032;-76
2023/07/23 03:26:55;;;;;;;7.90;3.40;;;;;;;17.93;100.00;100545.44;5199558;28;20033;-76
2023/07/23 03:29:26;;;;;;;4.82;3.20;;;;;;;17.96;100.00;100551.19;5200320;28;20026;-76
2023/07/23 03:31:57;;;;;;;5.15;3.47;;;;;;;17.94;100.00;100541.78;5202615;28;20084;-76
2023/07/23 03:34:30;;;;;;;6.32;3.70;;;;;;;17.91;100.00;100542.97;5201113;28;20053;-74
2023/07/23 03:37:01;;;;;;;5.63;3.47;;;;;;;17.93;100.00;100545.44;5199805;28;20069;-76
2023/07/23 03:39:32;;;;;;;7.53;3.80;;;;;;;17.95;100.00;100543.41;5201715;28;20042;-76
2023/07/23 03:42:04;;;;;;;6.53;3.60;;;;;;;17.88;100.00;100526.59;5196388;28;20077;-76
2023/07/23 03:44:35;;;;;;;6.63;3.10;;;;;;;17.93;100.00;100540.16;5200114;28;20428;-76
2023/07/23 03:47:12;;;;;;;4.82;3.40;;;;;;;18.06;100.00;100537.63;5203904;28;20030;-76
2023/07/23 03:49:45;;;;;;;4.70;3.53;;;;;;;17.92;100.00;100543.81;5182197;28;20152;-75
2023/07/23 03:52:17;;;;;;;5.03;3.17;;;;;;;17.96;100.00;100534.47;5175590;28;20038;-75
2023/07/23 03:54:48;;;;;;;7.03;2.80;;;;;;;17.97;100.00;100547.53;5177710;28;20031;-75
2023/07/23 03:57:19;;;;;;;8.45;3.45;;;;;;;17.98;100.00;100537.75;5184498;28;20038;-75
2023/07/23 03:59:50;;;;;;;4.22;3.00;;;;;;;17.99;100.00;100539.38;5183973;28;20041;-76
2023/07/23 04:02:22;;;;;;;7.55;3.65;;;;;;;18.00;100.00;100543.69;5178141;28;20768;-75
2023/07/23 04:04:53;;;;;;;6.57;3.53;;;;;;;18.00;100.00;100535.75;5177668;28;20022;-75
2023/07/23 04:07:24;;;;;;;8.20;3.38;;;;;;;18.02;100.00;100543.50;5180018;28;20041;-75
2023/07/23 04:09:56;;;;;;;4.25;2.90;;;;;;;18.03;100.00;100548.59;5181360;28;20432;-76
2023/07/23 04:12:27;;;;;;;7.22;3.50;;;;;;;18.05;100.00;100543.13;5176567;28;20093;-76
2023/07/23 04:14:59;;;;;;;6.07;2.97;;;;;;;18.03;100.00;100538.00;5179898;28;20065;-76
2023/07/23 04:17:31;;;;;;;3.85;2.95;;;;;;;18.03;100.00;100548.59;5179818;28;20483;-76
2023/07/23 04:20:03;;;;;;;5.72;3.47;;;;;;;18.05;100.00;100541.31;5174416;28;20117;-76
2023/07/23 04:22:35;;;;;;;4.47;2.88;;;;;;;18.08;100.00;100540.13;5173217;28;20080;-76
2023/07/23 04:25:06;;;;;;;7.45;3.00;;;;;;;18.12;100.00;100544.84;5177774;28;20112;-76
2023/07/23 04:27:37;;;;;;;5.43;3.40;;;;;;;18.12;100.00;100544.84;5184358;28;20038;-76
2023/07/23 04:30:09;;;;;;;4.00;2.83;;;;;;;18.12;100.00;100538.72;5178526;28;20054;-76
2023/07/23 04:32:40;;;;;;;5.85;3.30;;;;;;;18.09;100.00;100534.63;5178032;28;20041;-76
2023/07/23 04:35:12;;;;;;;7.57;3.22;;;;;;;18.12;100.00;100536.09;5182457;28;20029;-76
2023/07/23 04:37:43;;;;;;;6.70;3.38;;;;;;;18.20;100.00;100546.56;5180049;28;20124;-75
2023/07/23 04:40:14;;;;;;;5.05;3.25;;;;;;;18.23;100.00;100546.19;5180622;28;20093;-76
2023/07/23 04:42:45;;;;;;;5.88;3.25;;;;;;;18.24;100.00;100547.84;5181382;28;20038;-76
2023/07/23 04:45:17;;;;;;;5.97;3.20;;;;;;;18.25;100.00;100546.81;5181305;28;20096;-76
2023/07/23 04:47:48;;;;;;;5.25;3.33;;;;;;;18.24;100.00;100540.69;5182008;28;20034;-76
2023/07/23 04:50:19;;;;;;;5.05;3.00;;;;;;;18.27;100.00;100541.34;5184631;28;20770;-76
2023/07/23 04:52:50;;;;;;;5.90;3.13;;;;;;;18.27;100.00;100539.50;5200747;28;20571;-76
2023/07/23 04:55:22;;;;;;;5.57;2.93;;;;;;;18.28;100.00;100541.16;5207214;28;20475;-76
2023/07/23 04:57:53;;;;;;;5.75;3.05;;;;;;;18.30;100.00;100539.13;5199636;28;20775;-77
2023/07/23 05:00:24;;;;;;;5.78;3.25;;;;;;;18.31;100.00;100534.66;5203423;28;20487;-77
2023/07/23 05:02:56;;;;;;;4.88;3.45;;;;;;;18.31;100.00;100532.81;5199107;28;20107;-77
2023/07/23 05:05:27;;;;;;;5.47;3.28;;;;;;;18.30;100.00;100528.53;5199748;28;20060;-77
2023/07/23 05:07:58;;;;;;;4.47;3.13;;;;;;;18.31;100.00;100530.16;5201465;28;20029;-77
2023/07/23 05:10:30;;;;;;;6.43;3.22;;;;;;;18.30;100.00;100538.31;5199193;28;20034;-77
2023/07/23 05:13:01;;;;;;;5.13;2.75;;;;;;;18.28;100.00;100532.38;5178590;28;20030;-77
2023/07/23 05:15:32;;;;;;;8.73;4.05;;;;;;;18.27;100.00;100536.84;5205563;28;20080;-77
2023/07/23 05:18:03;;;;;;;5.80;3.28;;;;;;;18.30;100.00;100541.78;5197486;28;20033;-77
2023/07/23 05:20:35;;;;;;;8.25;3.45;;;;;;;18.25;100.00;100530.91;5202295;28;20466;-75
2023/07/23 05:23:06;;;;;;;6.47;3.10;;;;;;;18.29;100.00;100547.25;5196171;28;20030;-76
2023/07/23 05:25:38;;;;;;;6.45;2.95;;;;;;;18.29;100.00;100545.44;5199941;28;20069;-76
2023/07/23 05:28:10;;;;;;;6.55;3.40;;;;;;;18.28;100.00;100542.97;5200433;28;20398;-76
2023/07/23 05:30:41;;;;;;;6.88;3.25;;;;;;;18.27;100.00;100534.22;5203941;28;20033;-76
2023/07/23 05:33:12;;;;;;;6.55;3.20;;;;;;;18.26;100.00;100537.03;5197550;28;20734;-76
2023/07/23 05:35:44;;;;;;;5.13;3.08;;;;;;;18.26;100.00;100531.72;5199466;28;20578;-76
2023/07/23 05:38:15;;;;;;;6.13;3.55;;;;;;;18.27;100.00;100533.38;5198148;28;20030;-76
2023/07/23 05:40:57;;;;;;;5.45;2.92;;;;;;;18.47;100.00;100531.75;5195411;28;20034;-76
2023/07/23 05:43:29;;;;;;;5.07;3.58;;;;;;;18.30;100.00;100530.38;5196649;28;20041;-76
2023/07/23 05:46:00;;;;;;;7.03;3.35;;;;;;;18.22;100.00;100521.53;5198562;28;20033;-76
2023/07/23 05:48:32;;;;;;;4.45;3.00;;;;;;;18.29;100.00;100536.66;5196977;28;20037;-76
2023/07/23 05:51:04;;;;;;;4.85;3.03;;;;;;;18.27;100.00;100533.38;5198648;28;20054;-76
2023/07/23 05:53:35;;;;;;;5.72;2.90;;;;;;;18.29;100.00;100534.00;5199876;28;20026;-76
2023/07/23 05:56:06;;;;;;;5.32;3.45;;;;;;;18.29;100.00;100534.81;5201141;28;20125;-76
2023/07/23 05:58:37;;;;;;;6.20;3.17;;;;;;;18.33;100.00;100530.78;5198572;28;20021;-76
2023/07/23 06:01:09;;;;;;;5.07;3.33;;;;;;;18.34;100.00;100532.44;5196914;28;20447;-76
2023/07/23 06:03:40;;;;;;;5.47;2.60;;;;;;;18.28;100.00;100524.41;5205846;28;20387;-76
2023/07/23 06:06:11;;;;;;;4.47;2.87;;;;;;;18.38;100.00;100525.75;5198622;28;20552;-68
2023/07/23 06:08:42;;;;;;;5.55;2.60;;;;;;;18.38;100.00;100532.91;5200593;28;20797;-66
2023/07/23 06:11:14;;;;;;;5.07;2.58;;;;;;;18.38;100.00;100527.59;5204248;28;20517;-66
2023/07/23 06:13:45;;;;;;;4.75;2.97;;;;;;;18.25;100.00;100528.25;5207385;28;20072;-66
2023/07/23 06:16:16;;;;;;;7.22;3.55;;;;;;;18.23;100.00;100525.81;5189795;28;20026;-67
2023/07/23 06:18:48;;;;;;;5.68;3.58;;;;;;;18.24;100.00;100545.19;5201004;28;20088;-66
2023/07/23 06:21:19;;;;;;;5.03;3.35;;;;;;;18.16;100.00;100546.13;5201569;28;20049;-66
2023/07/23 06:23:51;;;;;;;7.60;3.60;;;;;;;18.17;100.00;100536.34;5199379;28;20093;-66
2023/07/23 06:26:23;;;;;;;4.30;3.03;;;;;;;18.11;100.00;100540.56;5199181;28;20038;-66
2023/07/23 06:28:54;;;;;;;4.68;3.28;;;;;;;18.06;100.00;100545.59;5200087;28;20026;-66
2023/07/23 06:31:25;;;;;;;4.45;3.22;;;;;;;18.09;100.00;100544.41;5194175;28;20054;-66
2023/07/23 06:33:56;;;;;;;4.20;3.28;;;;;;;18.16;100.00;100540.00;5203243;28;20052;-66
2023/07/23 06:36:28;;;;;;;5.03;3.33;;;;;;;18.21;100.00;100542.91;5204246;28;20060;-66
2023/07/23 06:38:59;;;;;;;4.93;3.53;;;;;;;18.24;100.00;100556.59;5202125;28;20634;-65
2023/07/23 06:41:30;;;;;;;7.75;3.40;;;;;;;18.26;100.00;100555.59;5196080;28;20519;-66
2023/07/23 06:44:02;;;;;;;4.30;3.22;;;;;;;18.30;100.00;100568.31;5195476;28;20030;-66
2023/07/23 06:46:33;;;;;;;5.40;3.10;;;;;;;18.29;100.00;100573.78;5201090;28;20030;-66
2023/07/23 06:49:04;;;;;;;5.00;2.92;;;;;;;18.26;100.00;100575.00;5192959;28;20549;-66
2023/07/23 06:51:35;;;;;;;5.43;3.92;;;;;;;18.07;100.00;100563.16;5194028;28;20050;-68
2023/07/23 06:54:07;;;;;;;4.00;3.25;;;;;;;18.07;100.00;100567.63;5200918;28;20504;-66
2023/07/23 06:56:38;;;;;;;5.95;3.63;;;;;;;18.03;100.00;100569.81;5201775;28;20475;-65
2023/07/23 06:59:09;;;;;;;6.90;3.78;;;;;;;17.89;100.00;100573.31;5200726;28;20036;-66
2023/07/23 07:01:40;;;;;;;6.20;3.85;;;;;;;17.85;100.00;100566.75;5195904;28;20492;-67
2023/07/23 07:04:12;;;;;;;5.05;3.40;;;;;;;17.83;100.00;100566.91;5195207;28;20443;-68
2023/07/23 07:06:43;;;;;;;4.77;3.87;;;;;;;17.91;100.00;100573.94;5203888;28;20034;-66
2023/07/23 07:09:14;;;;;;;6.18;3.83;;;;;;;17.80;100.00;100577.88;5206378;28;20284;-66
2023/07/23 07:11:46;;;;;;;5.03;3.60;;;;;;;17.81;100.00;100571.59;5198887;28;20030;-67
2023/07/23 07:14:17;;;;;;;5.57;3.97;;;;;;;17.75;100.00;100562.53;5195591;28;20289;-67
2023/07/23 07:16:48;;;;;;;5.97;3.58;;;;;;;17.87;100.00;100570.03;5192810;28;20026;-66
2023/07/23 07:19:19;;;;;;;6.20;3.95;;;;;;;17.83;100.00;100563.44;5198529;28;20034;-66
2023/07/23 07:21:51;;;;;;;6.90;3.97;;;;;;;17.81;100.00;100566.28;5195002;28;20030;-66
2023/07/23 07:24:22;;;;;;;6.65;4.85;;;;;;;17.78;100.00;100561.34;5178617;28;20120;-66
2023/07/23 07:26:53;;;;;;;6.78;4.18;;;;;;;17.71;100.00;100558.59;5194747;28;20037;-66
2023/07/23 07:29:24;;;;;;;5.95;4.80;;;;;;;17.80;100.00;100561.97;5194962;28;20030;-67
2023/07/23 07:31:56;;;;;;;4.15;3.55;;;;;;;17.75;100.00;100559.06;5196773;28;20026;-67
2023/07/23 07:34:27;;;;;;;7.28;3.72;;;;;;;17.76;100.00;100563.34;5199368;28;20418;-66
2023/07/23 07:36:58;;;;;;;5.80;4.20;;;;;;;17.82;100.00;100565.28;5200835;28;20026;-67
2023/07/23 07:39:30;;;;;;;6.65;4.55;;;;;;;17.85;100.00;100570.22;5197654;28;20137;-66
2023/07/23 07:42:01;;;;;;;6.38;4.40;;;;;;;17.89;100.00;100565.38;5182334;28;20045;-67
2023/07/23 07:44:32;;;;;;;6.65;4.40;;;;;;;17.89;100.00;100562.72;5196069;28;20037;-66
2023/07/23 07:47:04;;;;;;;6.22;4.13;;;;;;;17.98;100.00;100565.06;5194888;28;20038;-66
2023/07/23 07:49:35;;;;;;;5.60;4.07;;;;;;;18.04;100.00;100560.88;5195103;28;20053;-68
2023/07/23 07:52:07;;;;;;;6.03;4.38;;;;;;;18.07;100.00;100565.81;5194688;28;20109;-66
2023/07/23 07:54:38;;;;;;;6.93;4.97;;;;;;;18.06;100.00;100566.78;5176861;28;20138;-66
2023/07/23 07:57:10;;;;;;;11.75;5.07;;;;;;;18.11;100.00;100567.09;5197177;28;20468;-66
2023/07/23 07:59:42;;;;;;;5.78;4.18;;;;;;;18.04;100.00;100568.00;5202645;28;20512;-66
2023/07/23 08:02:13;;;;;;;5.15;3.97;;;;;;;17.98;100.00;100567.72;5193102;28;20030;-65
2023/07/23 08:04:45;;;;;;;5.43;4.40;;;;;;;18.12;100.00;100566.06;5198590;28;20037;-65
2023/07/23 08:07:19;;;;;;;5.95;4.40;;;;;;;18.14;100.00;100568.50;5197256;28;20499;-66
2023/07/23 08:09:52;;;;;;;5.80;4.93;;;;;;;18.17;100.00;100557.53;5189299;28;20030;-66
2023/07/23 08:12:24;;;;;;;6.10;4.78;;;;;;;18.20;100.00;100558.00;5193993;28;20437;-65
2023/07/23 08:14:58;;;;;;;5.32;4.38;;;;;;;18.27;100.00;100562.56;5196733;28;20048;-66
2023/07/23 08:17:29;;;;;;;6.18;4.05;;;;;;;18.26;100.00;100566.19;5198178;28;20045;-66
2023/07/23 08:20:03;;;;;;;4.88;3.97;;;;;;;18.25;100.00;100565.38;5199183;28;20029;-65
2023/07/23 08:22:35;;;;;;;5.07;4.13;;;;;;;18.27;100.00;100568.69;5198654;28;20487;-66
2023/07/23 08:25:08;;;;;;;5.55;4.13;;;;;;;18.29;100.00;100558.69;5201628;28;20030;-66
2023/07/23 08:27:41;;;;;;;5.60;3.78;;;;;;;18.31;100.00;100561.19;5201420;28;20031;-65
2023/07/23 08:30:13;;;;;;;5.07;3.60;;;;;;;18.30;100.00;100556.88;5199205;28;20033;-67
2023/07/23 08:32:47;;;;;;;4.97;4.00;;;;;;;18.41;100.00;100561.66;5196819;28;20389;-65
2023/07/23 08:35:18;;;;;;;5.53;3.92;;;;;;;18.41;100.00;100561.66;5199624;28;20033;-66
2023/07/23 08:37:50;;;;;;;3.88;3.33;;;;;;;18.39;100.00;100561.06;5195703;28;20073;-65
2023/07/23 08:40:24;;;;;;;3.45;3.08;;;;;;;18.52;100.00;100560.34;5201845;28;20029;-67
2023/07/23 08:42:55;;;;;;;4.47;3.22;;;;;;;18.43;100.00;100559.66;5200065;28;20100;-65
2023/07/23 08:45:30;;;;;;;4.67;3.13;;;;;;;18.56;100.00;100557.16;5183981;28;20034;-65
2023/07/23 08:48:18;;;;;;;3.00;2.47;;;;;;;18.72;100.00;100564.06;5202710;28;20034;-65
2023/07/23 08:50:50;;;;;;;4.00;2.72;;;;;;;18.44;100.00;100556.00;5200270;28;20648;-66
2023/07/23 08:53:21;;;;;;;5.65;2.90;;;;;;;18.44;100.00;100562.13;5201209;28;20165;-67
2023/07/23 08:55:53;;;;;;;3.10;2.40;;;;;;;18.60;100.00;100561.06;5199009;28;20032;-66
2023/07/23 08:58:24;;;;;;;2.97;2.67;;;;;;;18.61;100.00;100554.75;5194238;28;20491;-67
2023/07/23 09:00:56;;;;;;;3.30;2.50;;;;;;;18.67;100.00;100558.47;5198469;28;20092;-66
2023/07/23 09:03:27;;;;;;;3.60;2.83;;;;;;;18.69;100.00;100562.56;5200585;28;20042;-67
2023/07/23 09:06:00;;;;;;;3.08;2.58;;;;;;;18.61;100.00;100564.53;5198242;28;20026;-67
2023/07/23 09:08:33;;;;;;;2.97;2.40;;;;;;;18.64;100.00;100567.66;5200305;28;20030;-67
2023/07/23 09:11:06;;;;;;;3.75;2.65;;;;;;;18.62;100.00;100571.50;5200868;28;20038;-68
2023/07/23 09:13:37;;;;;;;3.05;2.20;;;;;;;18.57;100.00;100568.59;5201499;28;20033;-68
2023/07/23 09:16:09;;;;;;;3.30;2.25;;;;;;;18.64;100.00;100572.94;5198473;28;20033;-68
2023/07/23 09:18:40;;;;;;;3.67;2.08;;;;;;;18.68;100.00;100573.41;5200657;28;20022;-67
2023/07/23 09:21:22;;;;;;;3.72;2.75;;;;;;;18.76;100.00;100570.63;5200348;28;20030;-66
2023/07/23 09:23:56;;;;;;;5.10;2.45;;;;;;;18.58;100.00;100573.69;5197131;28;20073;-67
2023/07/23 09:26:27;;;;;;;3.22;2.42;;;;;;;18.51;100.00;100572.81;5192764;28;20025;-67
2023/07/23 09:28:59;;;;;;;3.08;2.58;;;;;;;18.53;100.00;100565.50;5194100;28;20037;-67
2023/07/23 09:31:32;;;;;;;3.03;2.25;;;;;;;18.67;100.00;100575.19;5195812;28;20019;-67
2023/07/23 09:34:04;;;;;;;2.90;2.40;;;;;;;18.56;100.00;100577.53;5197904;28;20526;-67
2023/07/23 09:36:35;;;;;;;3.43;2.80;;;;;;;18.50;100.00;100580.97;5196496;28;20030;-67
2023/07/23 09:39:08;;;;;;;3.40;2.37;;;;;;;18.53;100.00;100584.06;5194790;28;20033;-67
2023/07/23 09:41:39;;;;;;;3.05;2.50;;;;;;;18.46;100.00;100585.81;5199147;28;20607;-66
2023/07/23 09:44:12;;;;;;;2.78;2.38;;;;;;;18.56;100.00;100581.03;5197786;28;20030;-66
2023/07/23 09:46:45;;;;;;;3.50;2.47;;;;;;;18.50;100.00;100579.13;5196196;28;20040;-67
2023/07/23 09:49:23;;;;;;;3.28;2.60;;;;;;;18.66;100.00;100584.19;5198444;28;20974;-68
2023/07/23 09:51:54;;;;;;;3.40;2.50;;;;;;;18.53;100.00;100573.44;5201531;28;20088;-67
2023/07/23 09:54:25;;;;;;;3.40;2.70;;;;;;;18.55;100.00;100582.03;5194504;28;20025;-68
2023/07/23 09:56:57;;;;;;;3.15;2.30;;;;;;;18.46;100.00;100578.69;5188942;28;20028;-67
2023/07/23 09:59:30;;;;;;;2.72;2.05;;;;;;;18.43;100.00;100584.34;5196715;28;20033;-68
2023/07/23 10:02:02;;;;;;;3.15;2.20;;;;;;;18.41;100.00;100585.53;5186334;28;20034;-68
2023/07/23 10:04:35;;;;;;;2.42;2.05;;;;;;;18.34;100.00;100580.19;5186387;28;20041;-67
2023/07/23 10:07:07;;;;;;;2.97;2.53;;;;;;;18.31;100.00;100588.50;5195961;28;20053;-66
2023/07/23 10:09:38;;;;;;;2.65;1.98;;;;;;;18.32;100.00;100586.69;5195943;28;20182;-67
2023/07/23 10:12:10;;;;;;;2.72;2.10;;;;;;;18.38;100.00;100596.56;5190956;28;20043;-67
2023/07/23 10:14:41;;;;;;;3.10;2.17;;;;;;;18.41;100.00;100590.84;5192412;28;20129;-67
2023/07/23 10:17:15;;;;;;;2.22;1.73;;;;;;;18.36;100.00;100596.72;5192688;28;20038;-68
2023/07/23 10:19:47;;;;;;;2.47;2.00;;;;;;;18.36;100.00;100598.56;5191071;28;20034;-67
2023/07/23 10:22:21;;;;;;;2.80;2.30;;;;;;;18.42;100.00;100592.50;5195279;28;20037;-66
2023/07/23 10:24:52;;;;;;;3.13;2.22;;;;;;;18.44;100.00;100595.78;5198276;28;20296;-67
2023/07/23 10:27:24;;;;;;;3.88;2.33;;;;;;;18.57;100.00;100585.31;5191327;28;20081;-67
2023/07/23 10:30:28;;;;;;;4.03;1.95;;;;;;;18.87;100.00;100601.97;5193906;28;20030;-67
2023/07/23 10:33:11;;;;;;;2.60;2.28;;;;;;;18.66;100.00;100607.25;5127523;28;20840;-68
2023/07/23 10:35:51;;;;;;;;;;;;;;;19.06;100.00;100602.34;5192865;28;20468;-66
2023/07/23 10:38:28;;;;;;;3.08;2.35;;;;;;;18.53;100.00;100605.28;5198233;28;20386;-66
2023/07/23 10:41:00;;;;;;;3.05;2.47;;;;;;;18.47;100.00;100598.06;5197685;28;20034;-68
2023/07/23 10:43:46;;;;;;;2.83;1.95;;;;;;;18.76;100.00;100589.22;5177701;28;20041;-67
2023/07/23 10:46:19;;;;;;;2.42;1.95;;;;;;;18.53;100.00;100601.81;5178308;28;20399;-66
2023/07/23 10:48:55;;;;;;;5.25;2.80;;;;;;;18.62;100.00;100600.69;5189715;28;20034;-66
2023/07/23 10:51:26;;;;;;;3.20;2.42;;;;;;;18.68;100.00;100592.78;5194466;28;20049;-66
2023/07/23 10:54:07;;;;;;;3.28;2.28;;;;;;;18.80;100.00;100589.66;5198328;28;20077;-69
2023/07/23 10:56:40;;;;;;;2.88;2.40;;;;;;;18.81;100.00;100594.75;5189386;28;20026;-67
2023/07/23 10:59:16;;;;;;;2.33;1.92;;;;;;;18.97;100.00;100596.34;5191986;28;20490;-68
2023/07/23 11:01:51;;;;;;;2.70;2.17;;;;;;;18.97;100.00;100588.38;5193206;28;20340;-68
2023/07/23 11:04:25;;;;;;;2.80;2.50;;;;;;;19.00;100.00;100597.78;5199271;28;20034;-66
2023/07/23 11:06:57;;;;;;;3.88;2.35;;;;;;;19.00;100.00;100595.97;5196266;28;20560;-66
2023/07/23 11:09:33;;;;;;;2.50;2.30;;;;;;;19.21;100.00;100597.78;5178633;28;20030;-67
2023/07/23 11:12:05;;;;;;;3.20;2.58;;;;;;;19.22;100.00;100593.28;5194648;28;20092;-66
2023/07/23 11:14:36;;;;;;;3.20;2.90;;;;;;;19.31;100.00;100584.13;5196370;28;20042;-67
2023/07/23 11:17:08;;;;;;;3.70;2.40;;;;;;;19.64;100.00;100592.38;5198413;28;20455;-67
2023/07/23 11:19:44;;;;;;;4.83;2.90;;;;;;;19.80;100.00;100592.03;5195170;28;20045;-67
2023/07/23 11:22:15;;;;;;;4.22;3.10;;;;;;;19.83;100.00;100593.50;5194592;28;20051;-68
2023/07/23 11:24:47;;;;;;;3.22;2.90;;;;;;;19.93;100.00;100591.31;5197074;28;20045;-68
2023/07/23 11:27:18;;;;;;;3.23;2.63;;;;;;;20.05;100.00;100592.38;5194433;28;20027;-66
2023/07/23 11:29:49;;;;;;;3.73;3.27;;;;;;;20.23;100.00;100588.31;5194630;28;20388;-67
2023/07/23 11:32:21;;;;;;;3.70;3.00;;;;;;;20.31;100.00;100591.66;5178913;28;20496;-69
2023/07/23 11:34:52;;;;;;;4.50;3.05;;;;;;;20.68;100.00;100588.66;5167921;28;20030;-69
2023/07/23 11:37:23;;;;;;;5.50;3.33;;;;;;;20.99;100.00;100583.59;5175587;28;20034;-67
2023/07/23 11:39:55;;;;;;;4.17;3.50;;;;;;;21.21;100.00;100580.69;5192378;28;20444;-69